Time;durP1;ratioP1;P1;durP2;ratioP2;P2;SDS_P1;SDS_P2;PMS_P1;PMS_P2;Temp;Humidity;BMP_temperature;BMP_pressure;BME280_temperature;BME280_humidity;BME280_pressure;Samples;Min_cycle;Max_cycle;Signal;HPM_P1;HPM_P2
2022/06/09 00:00:36;;;;;;;5.07;4.67;;;21.70;96.40;;;;;;6096420;23;20451;-77
2022/06/09 00:03:09;;;;;;;7.20;6.53;;;21.70;96.30;;;;;;6096368;23;20925;-86
2022/06/09 00:05:37;;;;;;;5.73;5.23;;;21.70;96.20;;;;;;6096689;23;20465;-77
2022/06/09 00:08:07;;;;;;;5.97;5.47;;;21.80;96.20;;;;;;6097320;23;20729;-77
2022/06/09 00:10:41;;;;;;;6.70;6.10;;;21.80;96.20;;;;;;6100134;23;20745;-77
2022/06/09 00:13:10;;;;;;;6.03;5.00;;;21.80;96.20;;;;;;6097372;23;20453;-86
2022/06/09 00:15:38;;;;;;;12.73;11.00;;;21.70;96.20;;;;;;6097851;23;20456;-86
2022/06/09 00:18:05;;;;;;;9.87;8.87;;;21.70;96.30;;;;;;6097114;23;20471;-86
2022/06/09 00:20:32;;;;;;;7.83;7.23;;;21.70;96.30;;;;;;6097324;23;20442;-85
2022/06/09 00:22:59;;;;;;;6.90;6.30;;;21.70;96.20;;;;;;6097882;23;20514;-85
2022/06/09 00:25:26;;;;;;;13.30;12.00;;;21.80;96.20;;;;;;6097345;23;20985;-76
2022/06/09 00:27:55;;;;;;;8.53;7.83;;;21.80;96.10;;;;;;6097276;23;20438;-77
2022/06/09 00:30:22;;;;;;;8.13;7.43;;;21.80;96.00;;;;;;6096109;23;20847;-77
2022/06/09 00:32:49;;;;;;;11.90;10.80;;;21.80;95.80;;;;;;6097659;23;20747;-85
2022/06/09 00:35:16;;;;;;;20.30;18.00;;;21.80;95.80;;;;;;6095864;23;20478;-77
2022/06/09 00:37:43;;;;;;;12.10;11.03;;;21.80;95.80;;;;;;6097130;23;20980;-76
2022/06/09 00:40:14;;;;;;;8.73;7.93;;;21.80;95.80;;;;;;6096359;23;20458;-77
2022/06/09 00:42:41;;;;;;;11.67;10.50;;;21.80;95.80;;;;;;6097101;23;20477;-76
2022/06/09 00:45:46;;;;;;;8.37;7.67;;;21.90;96.00;;;;;;6081156;23;20439;-77
2022/06/09 00:48:25;;;;;;;17.60;15.90;;;21.90;96.10;;;;;;6095044;23;20436;-76
2022/06/09 00:50:58;;;;;;;12.90;11.60;;;21.90;96.20;;;;;;6097232;23;20507;-86
2022/06/09 00:53:29;;;;;;;8.63;7.93;;;21.90;96.20;;;;;;6096941;23;20792;-76
2022/06/09 00:55:59;;;;;;;10.70;9.60;;;21.80;96.20;;;;;;6096641;23;20441;-76
2022/06/09 00:58:28;;;;;;;11.03;10.03;;;21.90;96.30;;;;;;6096082;23;20890;-85
2022/06/09 01:01:01;;;;;;;8.40;7.60;;;21.90;96.30;;;;;;6097305;23;20497;-84
2022/06/09 01:03:36;;;;;;;6.50;5.90;;;21.90;96.30;;;;;;6096377;23;20428;-76
2022/06/09 01:06:07;;;;;;;7.23;6.57;;;21.90;96.30;;;;;;6097144;23;20470;-84
2022/06/09 01:08:36;;;;;;;6.87;6.27;;;21.90;96.30;;;;;;6096936;23;20434;-76
2022/06/09 01:11:03;;;;;;;11.10;9.80;;;21.80;96.30;;;;;;6096509;23;20463;-76
2022/06/09 01:13:33;;;;;;;8.60;7.80;;;21.80;96.30;;;;;;6081475;23;20431;-76
2022/06/09 01:16:08;;;;;;;12.57;11.33;;;21.80;96.30;;;;;;6095872;23;20832;-77
2022/06/09 01:18:42;;;;;;;14.20;12.90;;;21.80;96.30;;;;;;6094638;23;20439;-75
2022/06/09 01:21:19;;;;;;;18.43;16.53;;;21.70;96.30;;;;;;6096924;23;20442;-75
2022/06/09 01:24:24;;;;;;;12.77;11.57;;;21.70;96.40;;;;;;6096860;23;20423;-76
2022/06/09 01:27:17;;;;;;;7.40;6.67;;;21.70;96.40;;;;;;6096491;23;20429;-84
2022/06/09 01:30:06;;;;;;;7.70;7.10;;;21.70;96.40;;;;;;6095875;23;20486;-84
2022/06/09 01:32:39;;;;;;;14.27;12.93;;;21.60;96.40;;;;;;6096584;23;20500;-76
2022/06/09 01:35:18;;;;;;;8.97;8.17;;;21.60;96.40;;;;;;6096898;23;21042;-76
2022/06/09 01:37:47;;;;;;;4.30;4.00;;;21.60;96.50;;;;;;6095906;23;20466;-85
2022/06/09 01:40:17;;;;;;;6.33;5.70;;;21.60;96.40;;;;;;6097707;23;20440;-85
2022/06/09 01:42:47;;;;;;;5.13;4.63;;;21.60;96.50;;;;;;6097292;23;20498;-84
2022/06/09 01:45:18;;;;;;;15.57;13.97;;;21.50;96.50;;;;;;6097976;23;21181;-85
2022/06/09 01:47:52;;;;;;;6.83;6.23;;;21.50;96.50;;;;;;6097443;23;20437;-85
2022/06/09 01:50:27;;;;;;;4.77;4.37;;;21.50;96.50;;;;;;6097186;23;20436;-76
2022/06/09 01:52:56;;;;;;;7.83;7.13;;;21.40;96.50;;;;;;6096688;23;20453;-76
2022/06/09 01:55:26;;;;;;;19.50;15.87;;;21.40;96.50;;;;;;6098571;23;20500;-84
2022/06/09 01:57:58;;;;;;;11.00;9.47;;;21.30;96.50;;;;;;6097826;23;20424;-77
2022/06/09 02:00:26;;;;;;;8.90;8.10;;;21.30;96.50;;;;;;6097365;23;20713;-77
2022/06/09 02:03:01;;;;;;;7.30;6.60;;;21.30;96.60;;;;;;6098798;23;20431;-75
2022/06/09 02:05:42;;;;;;;6.23;5.63;;;21.30;96.60;;;;;;6098543;23;20913;-75
2022/06/09 02:08:14;;;;;;;17.57;15.80;;;21.20;96.60;;;;;;6099043;23;20444;-76
2022/06/09 02:10:45;;;;;;;8.10;7.40;;;21.20;96.60;;;;;;6097364;23;20732;-85
2022/06/09 02:13:17;;;;;;;6.70;6.10;;;21.20;96.70;;;;;;6098311;23;20436;-85
2022/06/09 02:15:47;;;;;;;6.37;5.77;;;21.20;96.60;;;;;;6100213;23;20839;-85
2022/06/09 02:18:18;;;;;;;3.83;3.53;;;21.20;96.60;;;;;;6099020;23;20893;-76
2022/06/09 02:20:48;;;;;;;2.80;2.60;;;21.20;96.50;;;;;;6097845;23;20690;-84
2022/06/09 02:23:16;;;;;;;2.80;2.60;;;21.10;96.40;;;;;;6098581;23;20476;-85
2022/06/09 02:25:43;;;;;;;4.07;2.80;;;21.10;96.40;;;;;;6098221;23;20764;-85
2022/06/09 02:28:10;;;;;;;3.63;3.23;;;21.10;96.40;;;;;;6099676;23;20500;-85
2022/06/09 02:30:38;;;;;;;4.10;3.70;;;21.10;96.40;;;;;;6098546;23;20502;-84
2022/06/09 02:33:05;;;;;;;3.70;3.40;;;21.10;96.30;;;;;;6097475;23;20475;-84
2022/06/09 02:35:34;;;;;;;3.37;3.10;;;21.00;96.30;;;;;;6099460;23;20449;-84
2022/06/09 02:38:01;;;;;;;4.63;4.00;;;21.00;96.30;;;;;;6097604;23;20435;-85
2022/06/09 02:40:29;;;;;;;3.57;2.80;;;21.00;96.30;;;;;;6100985;23;21010;-76
2022/06/09 02:42:56;;;;;;;2.50;2.30;;;21.00;96.20;;;;;;6097991;23;20443;-85
2022/06/09 02:45:24;;;;;;;2.07;1.97;;;21.00;96.20;;;;;;6100055;23;20976;-84
2022/06/09 02:47:52;;;;;;;4.03;2.27;;;21.00;96.20;;;;;;6100993;23;20491;-84
2022/06/09 02:50:19;;;;;;;3.70;3.40;;;21.00;96.20;;;;;;6100022;23;20428;-86
2022/06/09 02:52:47;;;;;;;4.03;3.17;;;21.00;96.20;;;;;;6100422;23;20433;-86
2022/06/09 02:55:15;;;;;;;2.77;2.57;;;20.90;96.10;;;;;;6100844;23;21396;-85
2022/06/09 02:57:42;;;;;;;4.90;2.70;;;20.90;96.20;;;;;;6099120;23;20803;-77
2022/06/09 03:00:14;;;;;;;3.50;3.30;;;20.90;96.20;;;;;;6098306;23;20440;-84
2022/06/09 03:02:41;;;;;;;4.03;3.10;;;20.90;96.30;;;;;;6097819;23;20453;-86
2022/06/09 03:05:09;;;;;;;3.67;3.40;;;20.80;96.30;;;;;;6097167;23;20494;-77
2022/06/09 03:07:36;;;;;;;6.33;3.67;;;20.80;96.30;;;;;;6086644;23;20465;-86
2022/06/09 03:10:05;;;;;;;3.83;3.47;;;20.80;96.30;;;;;;6097879;23;20498;-86
2022/06/09 03:12:32;;;;;;;6.70;5.83;;;20.80;96.40;;;;;;6084106;23;20441;-86
2022/06/09 03:15:02;;;;;;;4.23;3.03;;;20.80;96.50;;;;;;6097823;23;20440;-77
2022/06/09 03:17:30;;;;;;;3.30;3.03;;;20.70;96.60;;;;;;6097576;23;20827;-77
2022/06/09 03:19:57;;;;;;;3.90;2.93;;;20.70;96.70;;;;;;6097950;23;20436;-78
2022/06/09 03:22:24;;;;;;;3.30;3.00;;;20.70;96.80;;;;;;6113140;23;20436;-86
2022/06/09 03:24:51;;;;;;;3.27;2.97;;;20.60;96.70;;;;;;6110322;23;20435;-77
2022/06/09 03:27:20;;;;;;;3.03;2.83;;;20.60;96.80;;;;;;6099300;23;20443;-77
2022/06/09 03:29:47;;;;;;;3.13;2.83;;;20.60;96.90;;;;;;6100633;23;20475;-77
2022/06/09 03:32:17;;;;;;;3.60;3.23;;;20.50;96.90;;;;;;6110595;23;20436;-87
2022/06/09 03:34:44;;;;;;;3.27;2.97;;;20.50;97.00;;;;;;6110004;23;20440;-86
2022/06/09 03:37:13;;;;;;;3.67;2.90;;;20.50;97.10;;;;;;6106466;23;20755;-76
2022/06/09 03:39:40;;;;;;;2.60;2.40;;;20.50;97.10;;;;;;6103020;23;20502;-86
2022/06/09 03:42:10;;;;;;;3.07;2.70;;;20.40;97.10;;;;;;6101622;23;20501;-85
2022/06/09 03:44:40;;;;;;;2.53;2.33;;;20.40;97.20;;;;;;6100561;23;20432;-76
2022/06/09 03:47:08;;;;;;;2.90;2.40;;;20.50;97.30;;;;;;6102194;23;20443;-86
2022/06/09 03:49:35;;;;;;;2.50;2.30;;;20.40;97.20;;;;;;6106374;23;20437;-85
2022/06/09 03:52:02;;;;;;;3.57;2.20;;;20.40;97.20;;;;;;6098689;23;20745;-77
2022/06/09 03:54:29;;;;;;;2.70;2.50;;;20.40;97.30;;;;;;6097779;23;20441;-77
2022/06/09 03:56:56;;;;;;;3.40;3.10;;;20.40;97.30;;;;;;6104111;23;20442;-85
2022/06/09 03:59:23;;;;;;;2.67;2.47;;;20.40;97.30;;;;;;6099267;23;20450;-77
2022/06/09 04:01:51;;;;;;;2.87;2.67;;;20.40;97.30;;;;;;6113798;23;20748;-76
2022/06/09 04:04:18;;;;;;;3.67;3.37;;;20.40;97.40;;;;;;6101765;23;20478;-84
2022/06/09 04:06:45;;;;;;;5.63;3.17;;;20.40;97.40;;;;;;6117807;23;20444;-86
2022/06/09 04:09:12;;;;;;;3.40;3.10;;;20.40;97.40;;;;;;6111777;23;20438;-82
2022/06/09 04:11:39;;;;;;;2.77;2.57;;;20.40;97.40;;;;;;6101556;23;20446;-77
2022/06/09 04:14:06;;;;;;;3.60;2.60;;;20.40;97.50;;;;;;6099229;23;20442;-76
2022/06/09 04:16:36;;;;;;;2.57;2.37;;;20.40;97.50;;;;;;6100974;23;20480;-76
2022/06/09 04:19:09;;;;;;;2.80;2.53;;;20.40;97.50;;;;;;6097225;23;20448;-78
2022/06/09 04:21:37;;;;;;;2.90;2.67;;;20.40;97.50;;;;;;6105035;23;20916;-87
2022/06/09 04:24:05;;;;;;;3.67;3.20;;;20.40;97.50;;;;;;6102627;23;20471;-87
2022/06/09 04:26:35;;;;;;;3.40;2.87;;;20.40;97.50;;;;;;6100477;23;20450;-86
2022/06/09 04:29:02;;;;;;;4.93;4.47;;;20.40;97.50;;;;;;6100665;23;20515;-85
2022/06/09 04:31:29;;;;;;;4.23;3.93;;;20.40;97.50;;;;;;6097087;23;20446;-77
2022/06/09 04:33:58;;;;;;;3.10;2.73;;;20.40;97.60;;;;;;6097573;23;20488;-76
2022/06/09 04:36:27;;;;;;;3.27;2.97;;;20.50;97.60;;;;;;6096206;23;20446;-76
2022/06/09 04:38:54;;;;;;;3.13;2.83;;;20.50;97.60;;;;;;6097936;23;20442;-86
2022/06/09 04:41:21;;;;;;;4.30;2.80;;;20.50;97.60;;;;;;6097647;23;20433;-86
2022/06/09 04:43:49;;;;;;;2.40;2.20;;;20.50;97.60;;;;;;6098616;23;20441;-76
2022/06/09 04:46:34;;;;;;;2.27;2.17;;;20.60;97.70;;;;;;6097128;23;20475;-77
2022/06/09 04:49:04;;;;;;;3.67;2.93;;;20.60;97.70;;;;;;6097111;23;20479;-76
2022/06/09 04:51:32;;;;;;;3.10;2.80;;;20.60;97.70;;;;;;6095333;23;20455;-76
2022/06/09 04:54:00;;;;;;;2.93;2.63;;;20.70;97.70;;;;;;6097186;23;20434;-75
2022/06/09 04:56:28;;;;;;;4.43;2.87;;;20.70;97.70;;;;;;6096099;23;20452;-75
2022/06/09 04:58:55;;;;;;;3.10;2.80;;;20.70;97.70;;;;;;6098477;23;20439;-84
2022/06/09 05:01:25;;;;;;;4.00;2.80;;;20.70;97.70;;;;;;6099557;23;20436;-84
2022/06/09 05:03:52;;;;;;;2.97;2.07;;;20.80;97.70;;;;;;6099920;23;20905;-83
2022/06/09 05:06:21;;;;;;;5.20;4.13;;;20.80;97.70;;;;;;6099500;23;20574;-74
2022/06/09 05:08:52;;;;;;;5.53;2.83;;;20.90;97.70;;;;;;6098964;23;20437;-84
2022/06/09 05:11:19;;;;;;;3.33;2.40;;;21.00;97.60;;;;;;6097440;23;20442;-84
2022/06/09 05:13:47;;;;;;;4.13;3.00;;;21.10;97.50;;;;;;6098316;23;20528;-84
2022/06/09 05:16:15;;;;;;;2.87;2.67;;;21.20;97.40;;;;;;6097950;23;20792;-84
2022/06/09 05:18:42;;;;;;;2.63;2.30;;;21.30;97.20;;;;;;6097492;23;20478;-84
2022/06/09 05:21:10;;;;;;;2.10;1.90;;;21.30;96.90;;;;;;6099072;23;20462;-84
2022/06/09 05:23:38;;;;;;;2.60;1.60;;;21.40;96.80;;;;;;6099169;23;20471;-83
2022/06/09 05:26:08;;;;;;;4.30;3.50;;;21.50;96.80;;;;;;6097679;23;20745;-83
2022/06/09 05:28:35;;;;;;;2.40;2.10;;;21.50;96.70;;;;;;6098535;23;20467;-84
2022/06/09 05:31:03;;;;;;;4.27;1.77;;;21.50;96.60;;;;;;6099290;23;20441;-84
2022/06/09 05:33:30;;;;;;;1.70;1.60;;;21.50;96.40;;;;;;6100499;23;20467;-83
2022/06/09 05:35:58;;;;;;;1.80;1.70;;;21.60;96.30;;;;;;6097969;23;20499;-84
2022/06/09 05:46:42;;;;;;;2.50;2.20;;;21.60;96.40;;;;;;6099098;23;20510;-76
2022/06/09 05:49:10;;;;;;;2.70;2.30;;;21.60;96.70;;;;;;6098578;23;20438;-75
2022/06/09 05:51:37;;;;;;;4.83;4.40;;;21.60;96.40;;;;;;6098768;23;20904;-75
2022/06/09 05:54:05;;;;;;;5.60;4.47;;;21.60;96.40;;;;;;6098686;23;20430;-84
2022/06/09 05:56:45;;;;;;;8.53;3.80;;;21.60;96.30;;;;;;6099145;23;20785;-83
2022/06/09 05:59:13;;;;;;;3.03;2.73;;;21.60;96.30;;;;;;6097985;23;20438;-83
2022/06/09 06:01:40;;;;;;;2.80;2.30;;;21.60;96.30;;;;;;6099222;23;20434;-84
2022/06/09 06:04:10;;;;;;;2.07;1.40;;;21.60;96.20;;;;;;6098869;23;20443;-84
2022/06/09 06:06:37;;;;;;;1.67;1.50;;;21.60;96.20;;;;;;6098527;23;20446;-83
2022/06/09 06:09:06;;;;;;;2.30;2.10;;;21.60;96.20;;;;;;6097699;23;20518;-75
2022/06/09 06:11:35;;;;;;;2.63;1.60;;;21.60;96.20;;;;;;6098617;23;20453;-76
2022/06/09 06:14:03;;;;;;;2.23;2.03;;;21.60;96.60;;;;;;6097651;23;20441;-77
2022/06/09 06:16:30;;;;;;;2.80;2.57;;;21.60;96.20;;;;;;6098171;23;20750;-76
2022/06/09 06:18:57;;;;;;;3.90;2.53;;;21.70;96.40;;;;;;6097912;23;20446;-77
2022/06/09 06:21:34;;;;;;;2.60;2.27;;;21.70;96.40;;;;;;6097180;23;20760;-83
2022/06/09 06:24:03;;;;;;;3.83;1.83;;;21.80;96.30;;;;;;6098614;23;20431;-85
2022/06/09 06:26:31;;;;;;;3.00;1.67;;;21.80;96.30;;;;;;6099757;23;20454;-84
2022/06/09 06:28:58;;;;;;;3.20;2.90;;;21.90;96.30;;;;;;6100498;23;20530;-84
2022/06/09 06:31:27;;;;;;;4.50;4.10;;;22.00;96.50;;;;;;6099340;23;20535;-74
2022/06/09 06:33:54;;;;;;;2.50;2.30;;;22.00;96.10;;;;;;6099372;23;20918;-75
2022/06/09 06:36:21;;;;;;;2.50;2.07;;;22.00;96.10;;;;;;6100566;23;20494;-82
2022/06/09 06:38:49;;;;;;;3.73;1.77;;;22.10;96.10;;;;;;6100528;23;20452;-74
2022/06/09 06:41:17;;;;;;;4.90;2.37;;;22.10;96.20;;;;;;6098905;23;20443;-75
2022/06/09 06:43:45;;;;;;;1.87;1.53;;;22.10;96.20;;;;;;6086258;23;20446;-75
2022/06/09 06:46:12;;;;;;;2.33;2.13;;;22.20;96.10;;;;;;6102119;23;20450;-74
2022/06/09 06:48:41;;;;;;;1.70;1.60;;;22.20;95.90;;;;;;6099327;23;20474;-75
2022/06/09 06:51:08;;;;;;;2.23;1.93;;;22.30;95.90;;;;;;6084653;23;20499;-74
2022/06/09 06:53:35;;;;;;;1.77;1.67;;;22.30;95.80;;;;;;6099671;23;20436;-75
2022/06/09 06:56:03;;;;;;;2.60;1.13;;;22.40;95.80;;;;;;6102584;23;20755;-84
2022/06/09 06:58:34;;;;;;;2.47;1.50;;;22.40;95.70;;;;;;6107343;23;20461;-83
2022/06/09 07:01:02;;;;;;;4.43;1.60;;;22.50;95.50;;;;;;6109151;23;20466;-84
2022/06/09 07:03:32;;;;;;;2.03;1.83;;;22.50;95.50;;;;;;6111749;23;20455;-83
2022/06/09 07:06:01;;;;;;;2.03;1.87;;;22.60;95.50;;;;;;6096462;23;20927;-83
2022/06/09 07:08:28;;;;;;;2.50;1.87;;;22.50;95.50;;;;;;6108855;23;20447;-83
2022/06/09 07:10:55;;;;;;;2.70;2.00;;;22.60;95.60;;;;;;6110238;23;20467;-84
2022/06/09 07:13:23;;;;;;;3.90;1.73;;;22.60;95.70;;;;;;6105822;23;20440;-83
2022/06/09 07:15:51;;;;;;;3.27;2.00;;;22.60;95.70;;;;;;6110109;23;20454;-83
2022/06/09 07:18:18;;;;;;;2.50;1.40;;;22.60;95.50;;;;;;6110847;23;20442;-82
2022/06/09 07:20:45;;;;;;;2.80;2.30;;;22.70;95.50;;;;;;6112150;23;20431;-74
2022/06/09 07:23:20;;;;;;;5.50;1.87;;;22.60;95.40;;;;;;6108042;23;20443;-83
2022/06/09 07:25:47;;;;;;;1.90;1.70;;;22.50;95.50;;;;;;6099500;23;20445;-76
2022/06/09 07:28:15;;;;;;;2.80;2.60;;;22.50;95.50;;;;;;6099192;23;20443;-76
2022/06/09 07:30:42;;;;;;;2.70;1.60;;;22.40;95.50;;;;;;6097853;23;20982;-76
2022/06/09 07:33:09;;;;;;;3.33;1.97;;;22.40;95.60;;;;;;6098019;23;20800;-76
2022/06/09 07:35:38;;;;;;;1.80;1.70;;;22.30;95.60;;;;;;6098639;23;20437;-84
2022/06/09 07:38:08;;;;;;;3.23;1.90;;;22.30;95.70;;;;;;6096797;23;20436;-76
2022/06/09 07:40:40;;;;;;;2.80;1.40;;;22.20;95.80;;;;;;6098126;23;20491;-76
2022/06/09 07:43:07;;;;;;;2.13;1.93;;;22.20;96.00;;;;;;6100534;23;20439;-76
2022/06/09 07:45:34;;;;;;;3.33;2.20;;;22.10;96.20;;;;;;6097878;23;20443;-83
2022/06/09 07:48:02;;;;;;;1.97;1.73;;;22.10;96.40;;;;;;6098853;23;20442;-76
2022/06/09 07:50:29;;;;;;;2.57;2.23;;;22.00;96.40;;;;;;6100151;23;20439;-77
2022/06/09 07:52:56;;;;;;;2.70;2.50;;;22.00;96.50;;;;;;6098273;23;20446;-76
2022/06/09 07:55:24;;;;;;;1.60;1.50;;;21.90;96.50;;;;;;6099152;23;20458;-76
2022/06/09 07:57:55;;;;;;;3.43;2.33;;;21.80;96.60;;;;;;6098019;23;20468;-83
2022/06/09 08:00:24;;;;;;;2.20;2.00;;;21.80;96.70;;;;;;6097388;23;20927;-83
2022/06/09 08:02:52;;;;;;;3.10;1.90;;;21.80;96.90;;;;;;6097950;23;20509;-83
2022/06/09 08:05:22;;;;;;;3.13;2.00;;;21.70;96.90;;;;;;6096402;23;20440;-84
2022/06/09 08:07:50;;;;;;;3.30;1.70;;;21.70;97.10;;;;;;6098928;23;20453;-84
2022/06/09 08:10:20;;;;;;;2.40;2.20;;;21.60;97.10;;;;;;6095465;23;20443;-83
2022/06/09 08:12:48;;;;;;;2.37;2.20;;;21.60;97.30;;;;;;6097765;23;20510;-77
2022/06/09 08:15:17;;;;;;;2.20;2.00;;;21.60;97.40;;;;;;6096774;23;20524;-76
2022/06/09 08:17:45;;;;;;;2.10;2.00;;;21.50;97.60;;;;;;6097487;23;20424;-83
2022/06/09 08:20:14;;;;;;;3.43;2.40;;;21.50;97.70;;;;;;6099676;23;20441;-83
2022/06/09 08:22:43;;;;;;;2.47;2.27;;;21.50;97.90;;;;;;6097393;23;20445;-84
2022/06/09 08:25:15;;;;;;;3.87;2.17;;;21.50;98.00;;;;;;6099062;23;20506;-81
2022/06/09 08:27:43;;;;;;;2.53;2.33;;;21.50;98.20;;;;;;6099418;23;20439;-84
2022/06/09 08:30:12;;;;;;;4.00;2.07;;;21.50;98.30;;;;;;6102041;23;20465;-84
2022/06/09 08:32:41;;;;;;;4.50;1.90;;;21.50;98.40;;;;;;6100096;23;20438;-84
2022/06/09 08:35:12;;;;;;;5.10;2.37;;;21.40;98.40;;;;;;6102799;23;20643;-84
2022/06/09 08:37:39;;;;;;;2.53;2.10;;;21.40;98.40;;;;;;6098580;23;20438;-76
2022/06/09 08:40:08;;;;;;;2.80;2.60;;;21.40;98.50;;;;;;6097926;23;20440;-76
2022/06/09 08:42:46;;;;;;;2.60;2.40;;;21.30;98.40;;;;;;6097261;23;20793;-76
2022/06/09 08:45:19;;;;;;;5.70;2.67;;;21.30;98.60;;;;;;6097730;23;20442;-84
2022/06/09 08:47:51;;;;;;;3.23;2.77;;;21.20;99.30;;;;;;6100219;23;20432;-84
2022/06/09 08:50:21;;;;;;;5.53;2.43;;;21.20;99.90;;;;;;6100375;23;20440;-83
2022/06/09 08:52:55;;;;;;;2.03;1.80;;;21.10;99.90;;;;;;6099334;23;20444;-76
2022/06/09 08:55:28;;;;;;;3.30;2.33;;;21.10;99.90;;;;;;6096951;23;20446;-74
2022/06/09 08:58:02;;;;;;;5.43;2.60;;;21.10;99.90;;;;;;6097365;23;20748;-84
2022/06/09 09:00:39;;;;;;;2.40;2.20;;;21.00;99.90;;;;;;6098080;23;20453;-75
2022/06/09 09:03:16;;;;;;;5.03;3.00;;;21.00;99.90;;;;;;6099116;23;20502;-84
2022/06/09 09:05:48;;;;;;;3.90;3.60;;;20.90;99.90;;;;;;6097444;23;20485;-83
2022/06/09 09:08:15;;;;;;;4.63;2.77;;;20.90;99.90;;;;;;6100317;23;20445;-83
2022/06/09 09:10:51;;;;;;;3.07;2.77;;;20.90;99.90;;;;;;6099541;23;20428;-76
2022/06/09 09:13:39;;;;;;;3.13;2.83;;;20.90;99.90;;;;;;6097429;23;20432;-83
2022/06/09 09:16:13;;;;;;;2.07;1.93;;;20.90;99.90;;;;;;6097762;23;20498;-82
2022/06/09 09:18:49;;;;;;;4.23;3.10;;;20.90;99.90;;;;;;6097622;23;20430;-83
2022/06/09 09:21:25;;;;;;;5.23;2.77;;;20.80;99.90;;;;;;6095998;23;20498;-76
2022/06/09 09:24:05;;;;;;;2.53;2.40;;;20.80;99.90;;;;;;6095237;23;20479;-75
2022/06/09 09:26:48;;;;;;;3.30;2.40;;;20.80;99.90;;;;;;6096866;23;20454;-85
2022/06/09 09:29:23;;;;;;;3.23;2.90;;;20.80;99.90;;;;;;6097486;23;20501;-84
2022/06/09 09:31:55;;;;;;;3.93;2.97;;;20.90;99.90;;;;;;6098422;23;20435;-83
2022/06/09 09:34:25;;;;;;;2.27;1.90;;;20.90;99.90;;;;;;6097429;23;20929;-83
2022/06/09 09:36:58;;;;;;;3.13;2.80;;;20.90;99.90;;;;;;6096472;23;20453;-84
2022/06/09 09:39:33;;;;;;;2.87;2.63;;;21.00;99.90;;;;;;6097530;23;20977;-83
2022/06/09 09:42:12;;;;;;;3.27;2.87;;;21.00;99.90;;;;;;6097267;23;20478;-84
2022/06/09 09:44:40;;;;;;;2.40;2.20;;;21.00;99.90;;;;;;6096883;23;20433;-84
2022/06/09 09:47:08;;;;;;;2.60;2.33;;;21.00;99.90;;;;;;6096998;23;20440;-84
2022/06/09 09:49:44;;;;;;;4.23;3.83;;;21.10;99.90;;;;;;6096416;23;22685;-83
2022/06/09 09:52:40;;;;;;;4.50;3.67;;;21.10;99.90;;;;;;6097441;23;20764;-75
2022/06/09 09:55:26;;;;;;;3.43;2.80;;;21.20;99.90;;;;;;6095668;23;20442;-75
2022/06/09 09:58:16;;;;;;;3.20;2.97;;;21.20;99.90;;;;;;6096072;23;20526;-76
2022/06/09 10:00:44;;;;;;;2.97;2.67;;;21.30;99.90;;;;;;6096085;23;20444;-75
2022/06/09 10:09:08;;;;;;;4.33;3.33;;;21.40;99.90;;;;;;6095256;23;20441;-83
2022/06/09 10:11:55;;;;;;;5.07;3.17;;;21.40;99.90;;;;;;6096798;23;20465;-83
2022/06/09 10:14:36;;;;;;;3.67;3.37;;;21.40;99.90;;;;;;6097091;23;20464;-82
2022/06/09 10:17:09;;;;;;;3.87;3.27;;;21.50;99.90;;;;;;6097676;23;20770;-83
2022/06/09 10:19:40;;;;;;;3.80;3.13;;;21.50;99.90;;;;;;6098397;23;20462;-74
2022/06/09 10:22:20;;;;;;;5.73;5.17;;;21.60;99.90;;;;;;6099150;23;20460;-83
2022/06/09 10:24:53;;;;;;;5.23;4.73;;;21.60;99.90;;;;;;6098870;23;20485;-83
2022/06/09 10:27:25;;;;;;;4.27;3.87;;;21.60;99.90;;;;;;6099064;23;20459;-83
2022/06/09 10:30:00;;;;;;;5.77;5.27;;;21.60;99.90;;;;;;6098398;23;20510;-84
2022/06/09 10:32:32;;;;;;;5.20;4.80;;;21.70;99.90;;;;;;6099288;23;20449;-84
2022/06/09 10:35:06;;;;;;;6.40;3.77;;;21.70;99.90;;;;;;6099351;23;20435;-84
2022/06/09 10:37:42;;;;;;;3.43;3.23;;;21.80;99.90;;;;;;6098936;23;20785;-84
2022/06/09 10:40:15;;;;;;;4.63;3.70;;;21.90;99.90;;;;;;6097043;23;20425;-76
2022/06/09 10:42:50;;;;;;;4.40;3.93;;;21.90;99.90;;;;;;6098619;23;20743;-85
2022/06/09 10:45:24;;;;;;;3.53;3.20;;;21.90;99.90;;;;;;6098391;23;20846;-84
2022/06/09 10:56:36;;;;;;;4.70;4.07;;;22.00;99.90;;;;;;6099085;23;20453;-84
2022/06/09 10:59:08;;;;;;;4.27;3.63;;;22.00;99.80;;;;;;6096576;23;20747;-76
2022/06/09 11:01:37;;;;;;;6.43;3.57;;;22.00;99.70;;;;;;6097760;23;20529;-76
2022/06/09 11:04:11;;;;;;;3.70;3.40;;;22.00;99.80;;;;;;6097228;23;20427;-76
2022/06/09 11:07:10;;;;;;;3.93;3.40;;;22.00;99.80;;;;;;6097784;23;20441;-76
2022/06/09 11:09:51;;;;;;;4.27;3.97;;;22.00;99.90;;;;;;6098045;23;20477;-76
2022/06/09 11:12:28;;;;;;;4.27;3.97;;;22.00;99.70;;;;;;6097925;23;20939;-76
2022/06/09 11:15:09;;;;;;;7.60;3.70;;;22.00;99.60;;;;;;6096870;23;20467;-76
2022/06/09 11:17:53;;;;;;;3.90;3.53;;;22.00;99.60;;;;;;6098030;23;20463;-76
2022/06/09 11:20:30;;;;;;;4.00;3.80;;;22.00;99.60;;;;;;6097616;23;20442;-76
2022/06/09 11:23:08;;;;;;;3.83;3.47;;;22.00;99.80;;;;;;6097531;23;20418;-76
2022/06/09 11:25:49;;;;;;;5.00;4.50;;;22.00;99.80;;;;;;6097251;23;20439;-76
2022/06/09 11:28:39;;;;;;;4.40;3.70;;;22.00;99.80;;;;;;6097334;23;20521;-84
2022/06/09 11:31:22;;;;;;;8.20;6.90;;;22.10;99.60;;;;;;6098681;23;20441;-84
2022/06/09 11:34:00;;;;;;;9.17;6.30;;;22.10;99.60;;;;;;6098088;23;20455;-83
2022/06/09 11:36:34;;;;;;;5.60;4.90;;;22.10;99.50;;;;;;6097288;23;20463;-76
2022/06/09 11:39:17;;;;;;;7.27;4.40;;;22.10;99.50;;;;;;6096715;23;20446;-84
2022/06/09 11:41:57;;;;;;;5.30;3.83;;;22.10;99.50;;;;;;6097932;23;20452;-83
2022/06/09 11:44:27;;;;;;;4.57;4.17;;;22.10;99.50;;;;;;6098648;23;20450;-84
2022/06/09 11:46:56;;;;;;;3.87;3.57;;;22.10;99.60;;;;;;6097510;23;20490;-84
2022/06/09 11:49:30;;;;;;;4.77;4.43;;;22.10;99.70;;;;;;6097058;23;20691;-84
2022/06/09 11:52:00;;;;;;;4.70;4.40;;;22.10;99.80;;;;;;6097315;23;20462;-84
